createdAt,value
2018-08-27T00:00:18.308Z,55.35
2018-08-27T00:02:47.630Z,55.11
2018-08-27T00:05:17.298Z,55.12
2018-08-27T00:07:46.502Z,55.38
2018-08-27T00:10:15.442Z,55.67
2018-08-27T00:12:44.567Z,55.70
2018-08-27T00:15:13.590Z,55.74
2018-08-27T00:17:42.643Z,55.92
2018-08-27T00:20:11.755Z,55.95
2018-08-27T00:22:41.971Z,56.24
2018-08-27T00:25:11.058Z,55.83
2018-08-27T00:27:40.052Z,56.18
2018-08-27T00:30:09.374Z,56.00
2018-08-27T00:32:38.442Z,55.99
2018-08-27T00:35:07.840Z,55.86
2018-08-27T00:37:37.274Z,55.44
2018-08-27T00:40:06.368Z,55.18
2018-08-27T00:42:36.107Z,55.92
2018-08-27T00:45:05.379Z,55.83
2018-08-27T00:47:34.335Z,55.04
2018-08-27T00:50:03.410Z,55.45
2018-08-27T00:52:33.071Z,54.98
2018-08-27T00:55:02.462Z,54.90
2018-08-27T00:57:31.861Z,55.61
2018-08-27T01:00:01.085Z,55.26
2018-08-27T01:02:30.230Z,55.13
2018-08-27T01:04:59.353Z,54.92
2018-08-27T01:07:28.642Z,54.74
2018-08-27T01:09:57.796Z,54.76
2018-08-27T01:12:26.784Z,54.70
2018-08-27T01:14:55.895Z,55.61
2018-08-27T01:17:25.206Z,55.34
2018-08-27T01:19:54.098Z,55.54
2018-08-27T01:22:23.084Z,55.44
2018-08-27T01:24:52.584Z,55.45
2018-08-27T01:27:22.506Z,55.69
2018-08-27T01:29:51.669Z,55.47
2018-08-27T01:32:25.537Z,55.45
2018-08-27T01:34:55.566Z,55.13
2018-08-27T01:37:25.438Z,55.34
2018-08-27T01:39:55.642Z,55.95
2018-08-27T01:42:25.591Z,56.25
2018-08-27T01:44:54.763Z,55.24
2018-08-27T01:47:24.045Z,55.84
2018-08-27T01:49:53.060Z,56.03
2018-08-27T01:52:22.251Z,55.88
2018-08-27T01:54:51.528Z,56.10
2018-08-27T01:57:20.555Z,55.75
2018-08-27T01:59:50.370Z,56.63
2018-08-27T02:02:20.563Z,55.50
2018-08-27T02:04:49.859Z,56.33
2018-08-27T02:07:19.214Z,56.09
2018-08-27T02:09:48.404Z,55.79
2018-08-27T02:12:17.793Z,55.46
2018-08-27T02:14:47.173Z,55.71
2018-08-27T02:17:16.400Z,55.77
2018-08-27T02:19:45.894Z,55.80
2018-08-27T02:22:15.141Z,55.92
2018-08-27T02:24:44.122Z,55.97
2018-08-27T02:27:15.167Z,55.77
2018-08-27T02:29:44.290Z,56.45
2018-08-27T02:32:13.288Z,56.18
2018-08-27T02:34:42.846Z,55.79
2018-08-27T02:37:11.826Z,56.89
2018-08-27T02:39:41.454Z,57.40
2018-08-27T02:42:10.806Z,56.83
2018-08-27T02:44:40.050Z,57.01
2018-08-27T02:47:09.304Z,56.61
2018-08-27T02:49:38.386Z,57.14
2018-08-27T02:52:07.691Z,56.97
2018-08-27T02:54:36.960Z,57.07
2018-08-27T02:57:06.897Z,56.53
2018-08-27T02:59:36.547Z,57.02
2018-08-27T03:02:06.174Z,56.36
2018-08-27T03:04:35.252Z,57.00
2018-08-27T03:07:04.613Z,56.60
2018-08-27T03:09:33.620Z,56.43
2018-08-27T03:12:03.585Z,57.16
2018-08-27T03:14:32.630Z,56.81
2018-08-27T03:17:01.724Z,57.24
2018-08-27T03:19:31.299Z,56.98
2018-08-27T03:22:01.285Z,56.90
2018-08-27T03:24:30.447Z,57.15
2018-08-27T03:26:59.903Z,57.26
2018-08-27T03:29:29.663Z,56.96
2018-08-27T03:31:58.814Z,56.88
2018-08-27T03:34:28.619Z,57.23
2018-08-27T03:36:57.822Z,56.62
2018-08-27T03:39:26.868Z,57.04
2018-08-27T03:41:55.898Z,57.27
2018-08-27T03:44:24.921Z,57.30
2018-08-27T03:46:53.948Z,57.68
2018-08-27T03:49:22.996Z,57.48
2018-08-27T03:51:52.082Z,57.74
2018-08-27T03:54:21.236Z,57.40
2018-08-27T03:56:50.130Z,57.56
2018-08-27T03:59:19.463Z,57.47
2018-08-27T04:01:48.736Z,58.03
2018-08-27T04:04:17.916Z,58.02
2018-08-27T04:06:48.829Z,58.26
2018-08-27T04:09:18.010Z,58.05
2018-08-27T04:11:46.857Z,58.19
2018-08-27T04:14:16.029Z,57.71
2018-08-27T04:16:45.478Z,57.45
2018-08-27T04:19:15.145Z,57.51
2018-08-27T04:21:44.306Z,57.54
2018-08-27T04:24:13.313Z,57.99
2018-08-27T04:26:42.378Z,57.61
2018-08-27T04:29:11.911Z,57.74
2018-08-27T04:31:41.342Z,57.80
2018-08-27T04:34:10.429Z,57.62
2018-08-27T04:36:40.446Z,57.90
2018-08-27T04:39:10.740Z,57.81
2018-08-27T04:41:39.798Z,58.16
2018-08-27T04:44:09.204Z,58.56
2018-08-27T04:46:39.238Z,58.38
2018-08-27T04:49:08.431Z,58.61
2018-08-27T04:51:37.647Z,58.34
2018-08-27T04:54:07.676Z,57.88
2018-08-27T04:56:36.900Z,57.79
2018-08-27T04:59:11.096Z,58.24
2018-08-27T05:01:40.827Z,57.84
2018-08-27T05:04:09.925Z,58.29
2018-08-27T05:06:39.352Z,58.21
2018-08-27T05:09:10.122Z,58.42
2018-08-27T05:11:40.101Z,58.40
2018-08-27T05:14:10.736Z,58.49
2018-08-27T05:16:39.850Z,57.73
2018-08-27T05:19:10.382Z,57.84
2018-08-27T05:21:39.458Z,57.99
2018-08-27T05:24:09.083Z,58.37
2018-08-27T05:26:38.182Z,58.09
2018-08-27T05:29:07.769Z,58.42
2018-08-27T05:31:36.952Z,57.95
2018-08-27T05:34:06.268Z,58.71
2018-08-27T05:36:35.314Z,58.67
2018-08-27T05:39:05.103Z,58.24
2018-08-27T05:41:34.062Z,58.96
2018-08-27T05:44:03.303Z,58.57
2018-08-27T05:46:32.420Z,58.56
2018-08-27T05:49:01.760Z,58.59
2018-08-27T05:51:30.943Z,58.61
2018-08-27T05:54:00.093Z,57.92
2018-08-27T05:56:29.627Z,57.91
2018-08-27T05:58:58.683Z,58.61
2018-08-27T06:01:28.055Z,57.34
2018-08-27T06:03:57.296Z,57.22
2018-08-27T06:06:26.599Z,57.50
2018-08-27T06:08:55.719Z,56.57
2018-08-27T06:11:25.169Z,56.70
2018-08-27T06:13:54.314Z,56.63
2018-08-27T06:16:23.467Z,57.05
2018-08-27T06:18:52.646Z,56.37
2018-08-27T06:21:22.250Z,56.97
2018-08-27T06:23:51.279Z,57.14
2018-08-27T06:26:20.245Z,56.30
2018-08-27T06:28:49.426Z,56.37
2018-08-27T06:31:18.400Z,56.01
2018-08-27T06:33:47.673Z,55.78
2018-08-27T06:36:17.081Z,55.80
2018-08-27T06:38:46.331Z,55.36
2018-08-27T06:41:15.937Z,55.36
2018-08-27T06:43:44.950Z,55.06
2018-08-27T06:46:14.227Z,55.61
2018-08-27T06:48:43.941Z,55.58
2018-08-27T06:51:13.375Z,55.15
2018-08-27T06:53:42.368Z,55.36
2018-08-27T06:56:11.589Z,55.62
2018-08-27T06:58:40.887Z,54.70
2018-08-27T07:01:09.967Z,54.67
2018-08-27T07:03:39.375Z,53.52
2018-08-27T07:06:08.771Z,54.45
2018-08-27T07:08:37.793Z,54.39
2018-08-27T07:11:07.525Z,54.51
2018-08-27T07:13:36.758Z,54.07
2018-08-27T07:16:06.460Z,54.00
2018-08-27T07:18:35.710Z,53.70
2018-08-27T07:21:04.742Z,53.66
2018-08-27T07:23:33.982Z,53.31
2018-08-27T07:26:03.196Z,53.32
2018-08-27T07:28:32.419Z,52.90
2018-08-27T07:31:07.951Z,52.79
2018-08-27T07:33:37.069Z,52.75
2018-08-27T07:36:06.378Z,52.90
2018-08-27T07:38:35.773Z,52.73
2018-08-27T07:41:04.948Z,52.36
2018-08-27T07:43:34.378Z,52.52
2018-08-27T07:46:03.603Z,52.11
2018-08-27T07:48:32.775Z,51.78
2018-08-27T07:51:07.063Z,51.27
2018-08-27T07:53:36.419Z,51.05
2018-08-27T07:56:05.801Z,50.29
2018-08-27T07:58:35.168Z,50.72
2018-08-27T08:01:04.403Z,49.95
2018-08-27T08:03:33.627Z,49.73
2018-08-27T08:06:02.667Z,50.26
2018-08-27T08:08:32.304Z,50.00
2018-08-27T08:11:01.550Z,49.87
2018-08-27T08:13:30.679Z,49.67
2018-08-27T08:16:00.108Z,49.56
2018-08-27T08:18:29.639Z,49.19
2018-08-27T08:20:59.193Z,49.18
2018-08-27T08:23:29.006Z,48.90
2018-08-27T08:25:58.407Z,48.81
2018-08-27T08:28:27.553Z,48.31
2018-08-27T08:30:56.607Z,47.56
2018-08-27T08:33:25.999Z,48.17
2018-08-27T08:35:55.130Z,48.35
2018-08-27T08:38:24.533Z,48.31
2018-08-27T08:41:00.381Z,46.99
2018-08-27T08:43:29.385Z,47.08
2018-08-27T08:45:58.976Z,47.14
2018-08-27T08:48:28.387Z,47.51
2018-08-27T08:50:57.613Z,47.87
2018-08-27T08:53:27.014Z,47.90
2018-08-27T08:55:56.245Z,47.63
2018-08-27T08:58:26.870Z,47.49
2018-08-27T09:00:56.301Z,46.73
2018-08-27T09:03:25.799Z,46.69
2018-08-27T09:05:55.204Z,47.06
2018-08-27T09:08:24.208Z,45.77
2018-08-27T09:10:53.283Z,45.73
2018-08-27T09:13:22.364Z,45.21
2018-08-27T09:15:51.654Z,45.98
2018-08-27T09:18:24.651Z,46.34
2018-08-27T09:20:53.774Z,45.43
2018-08-27T09:23:23.290Z,44.85
2018-08-27T09:25:53.312Z,45.57
2018-08-27T09:28:22.488Z,45.55
2018-08-27T09:30:51.685Z,45.02
2018-08-27T09:33:20.845Z,44.05
2018-08-27T09:35:50.191Z,43.59
2018-08-27T09:38:19.490Z,42.75
2018-08-27T09:40:48.546Z,42.43
2018-08-27T09:43:18.767Z,42.08
2018-08-27T09:45:47.959Z,41.14
2018-08-27T09:48:17.067Z,40.91
2018-08-27T09:50:46.167Z,40.00
2018-08-27T09:53:15.346Z,37.67
2018-08-27T09:55:44.864Z,37.42
2018-08-27T09:58:14.003Z,38.17
2018-08-27T10:00:48.169Z,37.64
2018-08-27T10:03:17.518Z,38.10
2018-08-27T10:05:46.717Z,37.44
2018-08-27T10:08:16.253Z,37.60
2018-08-27T10:10:45.292Z,38.32
2018-08-27T10:13:14.378Z,37.65
2018-08-27T10:15:43.675Z,36.40
2018-08-27T10:18:12.921Z,35.22
2018-08-27T10:20:42.201Z,34.82
2018-08-27T10:23:11.269Z,35.63
2018-08-27T10:25:40.393Z,35.66
2018-08-27T10:28:09.595Z,34.03
2018-08-27T10:30:38.907Z,32.26
2018-08-27T10:33:08.024Z,33.11
2018-08-27T10:35:37.238Z,34.15
2018-08-27T10:38:06.496Z,34.70
2018-08-27T10:40:35.883Z,34.96
2018-08-27T10:43:05.157Z,34.03
2018-08-27T10:45:34.581Z,35.07
2018-08-27T10:48:03.729Z,34.79
2018-08-27T10:50:33.904Z,35.13
2018-08-27T10:53:03.598Z,34.97
2018-08-27T10:55:33.573Z,34.46
2018-08-27T10:58:02.659Z,34.02
2018-08-27T11:00:31.664Z,32.99
2018-08-27T11:03:03.113Z,33.33
2018-08-27T11:05:32.435Z,32.31
2018-08-27T11:08:02.234Z,32.55
2018-08-27T11:10:31.393Z,32.24
2018-08-27T11:13:00.666Z,33.01
2018-08-27T11:15:29.810Z,32.92
2018-08-27T11:17:59.129Z,33.03
2018-08-27T11:20:28.466Z,33.46
2018-08-27T11:22:57.510Z,33.56
2018-08-27T11:25:26.604Z,33.94
2018-08-27T11:27:55.884Z,33.31
2018-08-27T11:30:25.669Z,32.28
2018-08-27T11:32:54.994Z,33.00
2018-08-27T11:35:24.617Z,33.54
2018-08-27T11:37:53.668Z,33.49
2018-08-27T11:40:22.944Z,33.01
2018-08-27T11:42:52.247Z,33.65
2018-08-27T11:45:21.487Z,33.42
2018-08-27T11:47:50.746Z,34.67
2018-08-27T11:50:20.067Z,34.73
2018-08-27T11:52:49.318Z,34.44
2018-08-27T11:55:19.020Z,34.77
2018-08-27T11:57:48.210Z,33.84
2018-08-27T12:00:22.622Z,33.75
2018-08-27T12:02:52.035Z,32.65
2018-08-27T12:05:21.332Z,32.43
2018-08-27T12:07:50.456Z,32.10
2018-08-27T12:10:19.607Z,32.71
2018-08-27T12:12:52.581Z,32.18
2018-08-27T12:15:21.815Z,32.09
2018-08-27T12:17:51.376Z,31.84
2018-08-27T12:20:20.635Z,31.96
2018-08-27T12:22:49.805Z,31.99
2018-08-27T12:25:18.852Z,32.07
2018-08-27T12:27:47.898Z,32.25
2018-08-27T12:30:17.336Z,32.03
2018-08-27T12:32:46.575Z,31.50
2018-08-27T12:35:15.856Z,30.91
2018-08-27T12:37:45.003Z,30.55
2018-08-27T12:40:14.275Z,30.58
2018-08-27T12:42:43.493Z,31.09
2018-08-27T12:45:12.759Z,30.89
2018-08-27T12:47:42.100Z,31.40
2018-08-27T12:50:11.242Z,32.18
2018-08-27T12:52:40.271Z,32.04
2018-08-27T12:55:09.716Z,31.67
2018-08-27T12:57:39.386Z,31.26
2018-08-27T13:00:12.679Z,31.79
2018-08-27T13:02:41.963Z,31.83
2018-08-27T13:05:11.298Z,30.93
2018-08-27T13:07:41.863Z,30.90
2018-08-27T13:10:11.180Z,30.17
2018-08-27T13:12:40.555Z,29.25
2018-08-27T13:15:10.265Z,29.61
2018-08-27T13:17:39.370Z,27.77
2018-08-27T13:20:08.393Z,28.04
2018-08-27T13:22:37.497Z,28.71
2018-08-27T13:25:06.501Z,28.13
2018-08-27T13:27:35.885Z,29.02
2018-08-27T13:30:05.231Z,28.98
2018-08-27T13:32:34.710Z,28.39
2018-08-27T13:35:04.973Z,28.92
2018-08-27T13:37:34.107Z,27.89
2018-08-27T13:40:03.473Z,26.18
2018-08-27T13:42:32.887Z,26.84
2018-08-27T13:45:02.137Z,26.38
2018-08-27T13:47:31.166Z,26.11
2018-08-27T13:50:00.324Z,25.52
2018-08-27T13:52:29.426Z,25.09
2018-08-27T13:54:58.717Z,25.21
2018-08-27T13:57:27.673Z,24.52
2018-08-27T13:59:57.189Z,24.80
2018-08-27T14:02:26.443Z,24.90
2018-08-27T14:04:55.597Z,25.04
2018-08-27T14:07:24.588Z,25.42
2018-08-27T14:09:53.675Z,25.29
2018-08-27T14:12:22.798Z,24.62
2018-08-27T14:14:52.378Z,24.98
2018-08-27T14:17:21.664Z,23.95
2018-08-27T14:19:50.933Z,23.84
2018-08-27T14:22:20.390Z,23.71
2018-08-27T14:24:49.605Z,23.34
2018-08-27T14:27:19.380Z,23.72
2018-08-27T14:29:49.083Z,23.08
2018-08-27T14:32:18.327Z,24.54
2018-08-27T14:34:47.342Z,24.07
2018-08-27T14:37:16.395Z,23.19
2018-08-27T14:39:45.618Z,23.74
2018-08-27T14:42:14.721Z,23.13
2018-08-27T14:44:44.121Z,23.65
2018-08-27T14:47:13.144Z,23.40
2018-08-27T14:49:42.396Z,23.94
2018-08-27T14:52:11.361Z,23.58
2018-08-27T14:54:40.360Z,22.92
2018-08-27T14:57:09.304Z,23.60
2018-08-27T14:59:38.811Z,23.47
2018-08-27T15:02:07.855Z,23.73
2018-08-27T15:04:37.383Z,24.07
2018-08-27T15:07:06.973Z,23.22
2018-08-27T15:09:36.337Z,23.56
2018-08-27T15:12:05.885Z,22.95
2018-08-27T15:14:41.423Z,23.28
2018-08-27T15:17:11.070Z,23.44
2018-08-27T15:19:40.590Z,23.33
2018-08-27T15:22:09.877Z,22.44
2018-08-27T15:24:39.139Z,23.46
2018-08-27T15:27:08.335Z,22.83
2018-08-27T15:29:37.646Z,22.52
2018-08-27T15:32:06.939Z,22.49
2018-08-27T15:34:35.887Z,22.59
2018-08-27T15:37:05.078Z,21.85
2018-08-27T15:39:34.194Z,22.46
2018-08-27T15:42:03.727Z,21.60
2018-08-27T15:44:32.776Z,22.05
2018-08-27T15:47:02.012Z,22.03
2018-08-27T15:49:31.439Z,22.44
2018-08-27T15:52:00.829Z,22.04
2018-08-27T15:54:30.134Z,22.46
2018-08-27T15:57:01.419Z,22.32
2018-08-27T15:59:28.539Z,21.81
2018-08-27T16:01:57.435Z,21.54
2018-08-27T16:04:26.545Z,21.65
2018-08-27T16:06:55.764Z,21.26
2018-08-27T16:09:24.907Z,21.22
2018-08-27T16:11:54.556Z,21.03
2018-08-27T16:14:23.787Z,20.92
2018-08-27T16:16:52.804Z,22.08
2018-08-27T16:19:21.868Z,21.98
2018-08-27T16:21:51.348Z,21.20
2018-08-27T16:24:20.504Z,21.25
2018-08-27T16:26:49.918Z,21.34
2018-08-27T16:29:19.129Z,21.83
2018-08-27T16:31:48.231Z,21.91
2018-08-27T16:34:17.216Z,22.08
2018-08-27T16:36:46.616Z,21.24
2018-08-27T16:39:15.888Z,22.10
2018-08-27T16:41:45.138Z,21.55
2018-08-27T16:44:14.320Z,21.75
2018-08-27T16:46:43.442Z,21.97
2018-08-27T16:49:12.746Z,21.63
2018-08-27T16:51:41.699Z,21.86
2018-08-27T16:54:11.331Z,22.13
2018-08-27T16:56:40.672Z,21.46
2018-08-27T16:59:10.081Z,21.32
2018-08-27T17:01:39.361Z,21.42
2018-08-27T17:04:09.290Z,22.08
2018-08-27T17:06:38.461Z,21.93
2018-08-27T17:09:07.667Z,20.91
2018-08-27T17:11:36.727Z,21.46
2018-08-27T17:14:06.310Z,21.40
2018-08-27T17:16:35.737Z,21.47
2018-08-27T17:19:04.842Z,20.76
2018-08-27T17:21:33.827Z,20.69
2018-08-27T17:24:02.970Z,21.07
2018-08-27T17:26:32.481Z,21.90
2018-08-27T17:29:01.646Z,21.90
2018-08-27T17:31:30.954Z,21.89
2018-08-27T17:34:00.201Z,21.49
2018-08-27T17:36:29.365Z,22.54
2018-08-27T17:38:58.537Z,22.51
2018-08-27T17:41:27.635Z,23.33
2018-08-27T17:43:57.120Z,23.71
2018-08-27T17:46:26.290Z,24.76
2018-08-27T17:48:55.632Z,25.28
2018-08-27T17:51:24.869Z,26.12
2018-08-27T17:53:54.347Z,26.32
2018-08-27T17:56:23.568Z,27.39
2018-08-27T17:58:53.080Z,27.60
2018-08-27T18:01:22.626Z,28.06
2018-08-27T18:03:51.904Z,28.00
2018-08-27T18:06:21.187Z,28.31
2018-08-27T18:08:53.458Z,29.05
2018-08-27T18:11:22.533Z,28.52
2018-08-27T18:13:52.034Z,29.44
2018-08-27T18:16:21.586Z,29.90
2018-08-27T18:18:50.944Z,30.37
2018-08-27T18:21:21.209Z,30.84
2018-08-27T18:23:50.288Z,30.49
2018-08-27T18:26:19.712Z,30.03
2018-08-27T18:28:49.840Z,30.45
2018-08-27T18:31:19.043Z,30.43
2018-08-27T18:33:48.875Z,30.68
2018-08-27T18:36:18.191Z,30.73
2018-08-27T18:38:47.286Z,30.60
2018-08-27T18:41:16.634Z,30.81
2018-08-27T18:43:47.065Z,31.12
2018-08-27T18:46:17.300Z,31.22
2018-08-27T18:48:46.675Z,32.08
2018-08-27T18:51:15.738Z,31.85
2018-08-27T18:53:45.193Z,31.72
2018-08-27T18:56:14.356Z,32.61
2018-08-27T18:58:43.624Z,32.15
2018-08-27T19:01:12.939Z,32.32
2018-08-27T19:03:42.677Z,32.89
2018-08-27T19:06:12.175Z,32.36
2018-08-27T19:08:41.573Z,33.04
2018-08-27T19:11:11.113Z,33.82
2018-08-27T19:13:40.558Z,33.82
2018-08-27T19:16:10.141Z,33.54
2018-08-27T19:18:40.450Z,34.29
2018-08-27T19:21:10.078Z,34.79
2018-08-27T19:23:39.421Z,34.33
2018-08-27T19:26:08.976Z,34.95
2018-08-27T19:28:39.044Z,34.46
2018-08-27T19:31:08.492Z,35.03
2018-08-27T19:33:37.991Z,34.77
2018-08-27T19:36:07.353Z,38.28
2018-08-27T19:38:36.849Z,36.80
2018-08-27T19:41:06.221Z,35.25
2018-08-27T19:43:35.557Z,35.64
2018-08-27T19:46:04.981Z,35.22
2018-08-27T19:48:33.965Z,34.89
2018-08-27T19:51:06.408Z,35.39
2018-08-27T19:53:35.742Z,35.69
2018-08-27T19:56:04.975Z,35.31
2018-08-27T19:58:34.296Z,35.65
2018-08-27T20:01:03.468Z,35.89
2018-08-27T20:03:33.043Z,35.64
2018-08-27T20:06:02.903Z,35.94
2018-08-27T20:08:34.471Z,36.00
2018-08-27T20:11:04.106Z,37.10
2018-08-27T20:13:35.948Z,36.44
2018-08-27T20:16:07.396Z,36.74
2018-08-27T20:18:42.980Z,36.13
2018-08-27T20:21:12.383Z,36.15
2018-08-27T20:23:41.723Z,36.35
2018-08-27T20:26:11.200Z,36.63
2018-08-27T20:28:40.512Z,36.54
2018-08-27T20:31:09.791Z,36.42
2018-08-27T20:33:39.487Z,36.79
2018-08-27T20:36:08.735Z,37.22
2018-08-27T20:38:37.994Z,37.53
2018-08-27T20:41:07.569Z,37.34
2018-08-27T20:43:37.818Z,36.85
2018-08-27T20:46:07.452Z,37.45
2018-08-27T20:48:37.342Z,37.80
2018-08-27T20:51:06.837Z,37.04
2018-08-27T20:53:36.094Z,37.44
2018-08-27T20:56:07.195Z,37.03
2018-08-27T20:58:37.027Z,37.25
2018-08-27T21:01:06.876Z,37.07
2018-08-27T21:03:36.108Z,36.92
2018-08-27T21:06:05.384Z,37.49
2018-08-27T21:08:34.681Z,37.44
2018-08-27T21:11:03.988Z,37.16
2018-08-27T21:13:33.195Z,37.14
2018-08-27T21:16:02.475Z,37.74
2018-08-27T21:18:31.896Z,37.74
2018-08-27T21:21:02.137Z,37.91
2018-08-27T21:23:31.631Z,37.52
2018-08-27T21:26:00.751Z,37.49
2018-08-27T21:28:30.226Z,38.13
2018-08-27T21:30:59.644Z,38.18
2018-08-27T21:33:29.115Z,37.90
2018-08-27T21:35:58.513Z,37.82
2018-08-27T21:38:27.953Z,38.25
2018-08-27T21:40:58.010Z,39.43
2018-08-27T21:43:27.170Z,39.33
2018-08-27T21:45:56.605Z,40.30
2018-08-27T21:48:25.659Z,39.92
2018-08-27T21:50:55.057Z,40.18
2018-08-27T21:53:24.363Z,39.97
2018-08-27T21:55:53.497Z,40.72
2018-08-27T21:58:22.874Z,40.30
2018-08-27T22:00:56.317Z,39.94
2018-08-27T22:04:35.008Z,40.12
2018-08-27T22:07:04.686Z,40.66
2018-08-27T22:09:33.997Z,40.63
2018-08-27T22:12:03.605Z,41.64
2018-08-27T22:14:33.050Z,41.34
2018-08-27T22:17:02.453Z,41.09
2018-08-27T22:19:31.807Z,40.60
2018-08-27T22:22:01.751Z,40.42
2018-08-27T22:24:31.325Z,40.74
2018-08-27T22:27:01.070Z,40.59
2018-08-27T22:29:30.249Z,40.12
2018-08-27T22:31:59.688Z,40.36
2018-08-27T22:34:28.909Z,40.53
2018-08-27T22:36:58.407Z,40.95
2018-08-27T22:39:31.818Z,40.88
2018-08-27T22:42:01.082Z,39.91
2018-08-27T22:44:30.302Z,40.71
2018-08-27T22:46:59.529Z,40.42
2018-08-27T22:49:29.177Z,40.26
2018-08-27T22:51:59.215Z,39.75
2018-08-27T22:54:29.265Z,40.32
2018-08-27T22:56:58.504Z,40.34
2018-08-27T22:59:28.409Z,40.07
2018-08-27T23:01:57.809Z,40.27
2018-08-27T23:04:32.168Z,41.11
2018-08-27T23:07:01.360Z,40.89
2018-08-27T23:09:31.206Z,40.82
2018-08-27T23:12:00.607Z,41.13
2018-08-27T23:14:29.697Z,40.40
2018-08-27T23:16:59.100Z,41.03
2018-08-27T23:19:28.471Z,41.42
2018-08-27T23:21:57.805Z,40.75
2018-08-27T23:24:27.265Z,40.47
2018-08-27T23:26:56.546Z,41.09
2018-08-27T23:29:25.821Z,41.44
2018-08-27T23:31:55.061Z,41.12
2018-08-27T23:34:24.335Z,41.03
2018-08-27T23:36:53.700Z,41.30
2018-08-27T23:39:23.096Z,41.77
2018-08-27T23:41:52.753Z,41.31
2018-08-27T23:44:21.843Z,41.76
2018-08-27T23:46:50.901Z,41.69
2018-08-27T23:49:20.185Z,41.65
2018-08-27T23:51:50.023Z,41.90
2018-08-27T23:54:21.998Z,41.23
2018-08-27T23:56:51.427Z,41.17
2018-08-27T23:59:20.735Z,41.50
